createdAt,value
2023-05-23T00:01:38.568Z,13.16
2023-05-23T00:04:09.084Z,13.23
2023-05-23T00:06:39.061Z,12.67
2023-05-23T00:09:10.163Z,11.96
2023-05-23T00:11:39.354Z,10.99
2023-05-23T00:14:08.822Z,12.07
2023-05-23T00:16:44.185Z,13.36
2023-05-23T00:19:16.328Z,13.31
2023-05-23T00:21:49.626Z,13.22
2023-05-23T00:24:20.528Z,13.21
2023-05-23T00:26:50.115Z,13.06
2023-05-23T00:29:19.833Z,13.08
2023-05-23T00:31:50.091Z,10.74
2023-05-23T00:34:19.658Z,12.86
2023-05-23T00:36:50.630Z,12.77
2023-05-23T00:39:21.173Z,13.05
2023-05-23T00:41:53.803Z,12.72
2023-05-23T00:44:22.822Z,13.03
2023-05-23T00:46:57.653Z,13.04
2023-05-23T00:49:29.730Z,13.02
2023-05-23T00:51:58.675Z,13.08
2023-05-23T00:54:31.276Z,13.05
2023-05-23T00:57:02.496Z,12.39
2023-05-23T00:59:32.454Z,13.02
2023-05-23T01:02:06.206Z,13.06
2023-05-23T01:04:36.142Z,13.07
2023-05-23T01:07:05.560Z,12.22
2023-05-23T01:09:35.013Z,12.86
2023-05-23T01:12:20.021Z,13.13
2023-05-23T01:14:56.890Z,13.04
2023-05-23T01:17:36.639Z,12.94
2023-05-23T01:20:11.074Z,12.97
2023-05-23T01:22:56.127Z,11.64
2023-05-23T01:25:36.337Z,10.79
2023-05-23T01:28:09.188Z,13.05
2023-05-23T01:30:42.294Z,11.33
2023-05-23T01:33:12.699Z,12.95
2023-05-23T01:35:43.852Z,11.05
2023-05-23T01:38:12.930Z,11.79
2023-05-23T01:40:42.344Z,11.46
2023-05-23T01:43:13.505Z,12.03
2023-05-23T01:45:43.974Z,13.09
2023-05-23T01:48:15.240Z,13.02
2023-05-23T01:50:46.610Z,12.99
2023-05-23T01:53:18.978Z,12.97
2023-05-23T01:55:48.138Z,13.03
2023-05-23T01:58:18.791Z,10.92
2023-05-23T02:00:48.233Z,12.88
2023-05-23T02:03:18.052Z,11.60
2023-05-23T02:05:47.196Z,12.50
2023-05-23T02:08:16.018Z,13.02
2023-05-23T02:10:45.434Z,13.00
2023-05-23T02:13:14.810Z,13.09
2023-05-23T02:15:45.435Z,12.52
2023-05-23T02:18:14.364Z,12.74
2023-05-23T02:20:45.198Z,12.97
2023-05-23T02:23:15.693Z,12.95
2023-05-23T02:25:44.612Z,10.96
2023-05-23T02:28:14.006Z,12.96
2023-05-23T02:30:43.021Z,12.92
2023-05-23T02:33:16.838Z,11.92
2023-05-23T02:35:45.799Z,11.67
2023-05-23T02:38:14.897Z,10.00
2023-05-23T02:40:44.348Z,11.39
2023-05-23T02:43:13.592Z,11.93
2023-05-23T02:45:42.835Z,12.79
2023-05-23T02:48:12.196Z,10.34
2023-05-23T02:50:43.193Z,13.16
2023-05-23T02:53:12.505Z,12.72
2023-05-23T02:55:43.273Z,12.13
2023-05-23T02:58:12.595Z,13.10
2023-05-23T03:00:43.828Z,12.80
2023-05-23T03:03:13.016Z,10.46
2023-05-23T03:05:43.413Z,12.67
2023-05-23T03:08:12.800Z,12.19
2023-05-23T03:10:46.293Z,12.66
2023-05-23T03:13:15.189Z,11.82
2023-05-23T03:15:44.175Z,11.67
2023-05-23T03:18:13.639Z,11.47
2023-05-23T03:20:46.729Z,12.54
2023-05-23T03:23:15.612Z,12.62
2023-05-23T03:25:44.990Z,12.44
2023-05-23T03:28:13.848Z,10.20
2023-05-23T03:30:43.179Z,12.48
2023-05-23T03:33:12.308Z,12.34
2023-05-23T03:35:41.244Z,9.93
2023-05-23T03:38:13.087Z,12.44
2023-05-23T03:40:41.958Z,8.75
2023-05-23T03:43:11.221Z,11.61
2023-05-23T03:45:43.076Z,12.29
2023-05-23T03:48:16.849Z,12.32
2023-05-23T03:50:46.022Z,11.56
2023-05-23T03:53:16.455Z,12.20
2023-05-23T03:55:47.702Z,12.18
2023-05-23T03:58:18.982Z,12.36
2023-05-23T04:00:50.994Z,12.46
2023-05-23T04:03:20.383Z,10.03
2023-05-23T04:05:50.064Z,12.26
2023-05-23T04:08:22.246Z,9.68
2023-05-23T04:10:53.012Z,11.71
2023-05-23T04:13:24.963Z,12.02
2023-05-23T04:15:56.514Z,11.76
2023-05-23T04:18:28.584Z,11.84
2023-05-23T04:20:57.799Z,11.19
2023-05-23T04:23:30.697Z,10.09
2023-05-23T04:26:00.447Z,11.85
2023-05-23T04:28:35.934Z,11.74
2023-05-23T04:31:05.349Z,10.94
2023-05-23T04:33:36.945Z,11.88
2023-05-23T04:36:09.318Z,11.67
2023-05-23T04:38:42.085Z,11.77
2023-05-23T04:41:13.463Z,11.80
2023-05-23T04:44:00.198Z,11.80
2023-05-23T04:46:34.277Z,11.63
2023-05-23T04:49:17.192Z,11.76
2023-05-23T04:51:46.344Z,9.36
2023-05-23T04:54:23.043Z,8.18
2023-05-23T04:56:52.082Z,11.83
2023-05-23T04:59:22.448Z,11.91
2023-05-23T05:01:53.739Z,11.71
2023-05-23T05:04:23.461Z,11.88
2023-05-23T05:06:53.463Z,11.58
2023-05-23T05:09:23.645Z,11.33
2023-05-23T05:11:53.128Z,11.80
2023-05-23T05:14:22.783Z,11.59
2023-05-23T05:16:51.883Z,11.92
2023-05-23T05:19:24.889Z,11.97
2023-05-23T05:21:53.734Z,11.89
2023-05-23T05:24:24.360Z,11.92
2023-05-23T05:26:53.765Z,11.89
2023-05-23T05:29:23.040Z,11.89
2023-05-23T05:31:52.771Z,11.96
2023-05-23T05:34:22.811Z,12.02
2023-05-23T05:36:55.994Z,11.88
2023-05-23T05:39:28.953Z,11.79
2023-05-23T05:41:58.224Z,11.32
2023-05-23T05:44:27.201Z,9.57
2023-05-23T05:46:56.238Z,11.70
2023-05-23T05:49:25.487Z,11.70
2023-05-23T05:51:54.384Z,8.87
2023-05-23T05:54:23.263Z,11.48
2023-05-23T05:56:56.714Z,10.45
2023-05-23T05:59:26.349Z,11.50
2023-05-23T06:01:56.993Z,11.57
2023-05-23T06:04:26.046Z,11.62
2023-05-23T06:06:55.860Z,11.68
2023-05-23T06:09:26.169Z,11.47
2023-05-23T06:23:54.221Z,11.95
2023-05-23T06:26:23.187Z,11.87
2023-05-23T06:28:54.778Z,11.72
2023-05-23T06:31:23.644Z,11.87
2023-05-23T06:33:57.357Z,11.81
2023-05-23T06:36:28.225Z,11.80
2023-05-23T06:39:00.968Z,11.75
2023-05-23T06:41:29.795Z,11.92
2023-05-23T06:43:59.132Z,12.02
2023-05-23T06:46:31.731Z,12.22
2023-05-23T06:49:13.915Z,12.28
2023-05-23T06:51:45.114Z,12.50
2023-05-23T06:54:15.874Z,12.83
2023-05-23T06:56:46.297Z,13.21
2023-05-23T06:59:15.122Z,13.27
2023-05-23T07:01:44.082Z,13.27
2023-05-23T07:04:15.522Z,13.09
2023-05-23T07:06:44.477Z,12.96
2023-05-23T07:09:15.029Z,12.81
2023-05-23T07:11:43.788Z,12.79
2023-05-23T09:50:33.456Z,16.38
2023-05-23T10:03:23.678Z,16.24
2023-05-23T10:06:01.515Z,16.20
2023-05-23T10:08:35.386Z,16.13
2023-05-23T10:11:51.999Z,15.94
2023-05-23T10:14:20.793Z,16.19
2023-05-23T10:16:59.360Z,16.18
2023-05-23T10:19:37.101Z,16.11
2023-05-23T10:22:11.345Z,16.16
2023-05-23T10:24:43.669Z,16.21
2023-05-23T10:27:13.216Z,16.46
2023-05-23T10:29:42.108Z,16.20
2023-05-23T10:32:16.074Z,16.09
2023-05-23T10:34:54.544Z,15.62
2023-05-23T10:37:31.004Z,16.34
2023-05-23T10:40:06.172Z,16.27
2023-05-23T10:42:46.609Z,16.42
2023-05-23T10:45:16.458Z,16.22
2023-05-23T10:47:48.987Z,16.37
2023-05-23T10:50:33.460Z,15.94
2023-05-23T10:53:05.083Z,15.92
2023-05-23T10:55:34.962Z,15.93
2023-05-23T10:58:17.106Z,16.04
2023-05-23T11:00:54.386Z,15.77
2023-05-23T11:03:54.092Z,16.30
2023-05-23T11:06:35.482Z,16.00
2023-05-23T11:09:08.227Z,16.13
2023-05-23T11:11:57.955Z,15.69
2023-05-23T11:14:34.151Z,16.51
2023-05-23T11:17:16.986Z,16.40
2023-05-23T11:19:58.061Z,16.72
2023-05-23T11:22:30.828Z,16.90
2023-05-23T11:25:01.697Z,17.16
2023-05-23T11:27:34.715Z,16.94
2023-05-23T11:30:07.954Z,16.71
2023-05-23T11:32:37.736Z,16.11
2023-05-23T11:35:08.782Z,16.53
2023-05-23T11:37:39.056Z,16.61
2023-05-23T11:40:31.214Z,16.32
2023-05-23T11:43:00.753Z,16.46
2023-05-23T11:45:33.316Z,16.53
2023-05-23T11:48:08.994Z,16.57
2023-05-23T11:50:46.133Z,16.55
2023-05-23T11:53:17.624Z,16.31
2023-05-23T11:55:55.529Z,15.74
2023-05-23T11:58:28.806Z,15.92
2023-05-23T12:01:01.224Z,16.43
2023-05-23T12:03:30.230Z,16.52
2023-05-23T12:05:59.824Z,16.50
2023-05-23T12:08:28.765Z,16.97
2023-05-23T12:11:01.336Z,16.82
2023-05-23T12:13:31.256Z,16.83
2023-05-23T12:16:01.647Z,16.98
2023-05-23T12:18:32.099Z,17.32
2023-05-23T12:21:06.676Z,17.25
2023-05-23T12:23:36.720Z,17.14
2023-05-23T12:26:10.130Z,17.01
2023-05-23T12:28:40.473Z,16.35
2023-05-23T12:31:13.437Z,17.19
2023-05-23T12:33:43.968Z,16.99
2023-05-23T12:36:12.991Z,16.88
2023-05-23T12:38:45.616Z,17.02
2023-05-23T12:41:19.653Z,17.10
2023-05-23T12:43:52.734Z,17.41
2023-05-23T12:46:25.176Z,17.40
2023-05-23T12:48:54.429Z,17.35
2023-05-23T12:51:23.317Z,17.32
2023-05-23T12:53:52.553Z,17.19
2023-05-23T12:56:27.893Z,16.90
2023-05-23T12:58:57.153Z,16.89
2023-05-23T13:01:26.033Z,17.06
2023-05-23T13:03:54.879Z,16.50
2023-05-23T13:06:23.691Z,16.74
2023-05-23T13:08:55.272Z,16.89
2023-05-23T13:11:24.186Z,17.11
2023-05-23T13:13:54.413Z,16.72
2023-05-23T13:16:23.335Z,16.48
2023-05-23T13:18:54.510Z,16.44
2023-05-23T13:21:23.487Z,16.76
2023-05-23T13:23:52.264Z,16.33
2023-05-23T13:26:21.866Z,16.23
2023-05-23T13:28:50.651Z,16.18
2023-05-23T13:31:21.615Z,16.09
2023-05-23T13:33:50.592Z,16.82
2023-05-23T13:36:19.406Z,16.31
2023-05-23T13:38:48.204Z,16.23
2023-05-23T13:41:16.902Z,16.55
2023-05-23T13:43:48.278Z,16.37
2023-05-23T13:46:17.024Z,16.33
2023-05-23T13:48:49.371Z,16.30
2023-05-23T13:51:18.162Z,16.11
2023-05-23T13:53:46.960Z,15.97
2023-05-23T13:56:17.010Z,16.52
2023-05-23T13:58:48.050Z,16.55
2023-05-23T14:01:19.278Z,16.11
2023-05-23T14:03:49.387Z,15.94
2023-05-23T14:06:18.362Z,16.00
2023-05-23T14:08:47.168Z,16.04
2023-05-23T14:11:15.963Z,15.92
2023-05-23T14:13:44.664Z,15.95
2023-05-23T14:16:13.436Z,15.82
2023-05-23T14:18:42.317Z,15.87
2023-05-23T14:21:12.630Z,16.11
2023-05-23T14:23:41.597Z,16.09
2023-05-23T14:26:10.547Z,16.22
2023-05-23T14:28:41.630Z,16.16
2023-05-23T14:31:10.667Z,16.42
2023-05-23T14:33:39.545Z,16.47
2023-05-23T14:36:08.871Z,16.57
2023-05-23T14:38:41.916Z,16.48
2023-05-23T14:41:10.669Z,16.39
2023-05-23T14:43:39.496Z,16.27
2023-05-23T14:46:09.168Z,16.15
2023-05-23T14:48:38.078Z,16.07
2023-05-23T14:51:07.224Z,16.05
2023-05-23T14:53:35.998Z,16.09
2023-05-23T14:56:08.563Z,16.28
2023-05-23T14:58:37.330Z,16.18
2023-05-23T15:01:06.233Z,16.15
2023-05-23T15:03:35.127Z,15.97
2023-05-23T15:06:04.503Z,15.82
2023-05-23T15:08:36.285Z,15.67
2023-05-23T15:11:05.028Z,15.65
2023-05-23T15:13:35.353Z,15.61
2023-05-23T15:16:04.329Z,15.70
2023-05-23T15:18:41.515Z,15.29
2023-05-23T15:21:10.856Z,15.22
2023-05-23T15:23:39.716Z,15.27
2023-05-23T15:26:08.514Z,15.03
2023-05-23T15:28:38.800Z,15.01
2023-05-23T15:31:07.655Z,14.33
2023-05-23T15:33:38.890Z,14.92
2023-05-23T15:36:08.288Z,14.96
2023-05-23T15:38:39.658Z,15.24
2023-05-23T15:41:08.492Z,15.56
2023-05-23T15:43:38.681Z,15.67
2023-05-23T15:46:07.538Z,15.56
2023-05-23T15:48:36.344Z,15.59
2023-05-23T15:51:05.350Z,15.37
2023-05-23T15:53:40.131Z,15.16
2023-05-23T16:11:44.166Z,15.39
2023-05-23T16:14:12.924Z,15.35
2023-05-23T16:16:41.817Z,15.47
2023-05-23T16:19:13.207Z,15.49
2023-05-23T16:21:44.275Z,15.43
2023-05-23T16:24:17.102Z,15.52
2023-05-23T16:26:47.238Z,15.47
2023-05-23T16:29:18.372Z,15.25
2023-05-23T16:31:47.200Z,15.23
2023-05-23T16:34:16.144Z,15.40
2023-05-23T16:36:44.954Z,15.20
2023-05-23T16:39:14.306Z,15.42
2023-05-23T16:41:43.067Z,15.61
2023-05-23T16:44:13.205Z,15.36
2023-05-23T16:46:42.371Z,15.40
2023-05-23T16:49:11.436Z,15.71
2023-05-23T16:51:40.289Z,15.32
2023-05-23T16:54:09.589Z,15.37
2023-05-23T16:56:39.220Z,15.10
2023-05-23T16:59:08.083Z,15.13
2023-05-23T17:01:38.319Z,14.94
2023-05-23T17:04:07.048Z,14.86
2023-05-23T17:06:37.219Z,14.71
2023-05-23T17:09:06.353Z,14.64
2023-05-23T17:11:35.106Z,14.59
2023-05-23T17:14:03.873Z,14.72
2023-05-23T17:16:35.250Z,14.56
2023-05-23T17:19:05.755Z,14.48
2023-05-23T17:21:37.772Z,14.30
2023-05-23T17:24:06.858Z,14.37
2023-05-23T17:26:35.695Z,14.47
2023-05-23T17:29:04.489Z,14.36
2023-05-23T17:31:33.340Z,14.03
2023-05-23T17:34:02.135Z,14.21
2023-05-23T17:36:37.127Z,14.30
2023-05-23T17:39:08.662Z,14.18
2023-05-23T17:41:40.417Z,14.23
2023-05-23T17:44:11.966Z,13.99
2023-05-23T17:46:41.156Z,13.76
2023-05-23T17:49:10.062Z,13.97
2023-05-23T17:51:40.145Z,13.92
2023-05-23T17:54:08.984Z,13.92
2023-05-23T17:56:37.804Z,14.00
2023-05-23T17:59:09.499Z,13.80
2023-05-23T18:01:38.309Z,14.01
2023-05-23T18:04:07.209Z,13.68
2023-05-23T18:06:36.063Z,13.76
2023-05-23T18:09:06.288Z,13.62
2023-05-23T18:11:35.147Z,13.66
2023-05-23T18:14:07.248Z,13.60
2023-05-23T18:16:36.769Z,13.52
2023-05-23T18:19:06.113Z,13.40
2023-05-23T18:21:35.650Z,13.48
2023-05-23T18:24:09.085Z,13.40
2023-05-23T18:26:42.236Z,13.41
2023-05-23T18:29:10.854Z,13.01
2023-05-23T18:31:39.557Z,12.90
2023-05-23T18:34:08.449Z,12.80
2023-05-23T18:36:37.887Z,12.95
2023-05-23T18:39:08.515Z,12.87
2023-05-23T18:46:30.166Z,12.70
2023-05-23T18:48:58.960Z,11.92
2023-05-23T18:51:27.828Z,12.54
2023-05-23T18:53:56.972Z,12.66
2023-05-23T18:56:27.161Z,12.71
2023-05-23T18:58:56.055Z,12.64
2023-05-23T19:01:27.128Z,12.50
2023-05-23T19:03:57.849Z,12.60
2023-05-23T19:06:27.711Z,12.56
2023-05-23T19:08:56.533Z,12.50
2023-05-23T19:11:26.917Z,12.43
2023-05-23T19:13:55.712Z,12.37
2023-05-23T19:16:24.523Z,12.45
2023-05-23T19:18:54.386Z,12.38
2023-05-23T19:21:23.541Z,12.32
2023-05-23T19:23:52.359Z,12.25
2023-05-23T19:26:21.086Z,11.55
2023-05-23T19:28:51.219Z,11.85
2023-05-23T19:31:20.033Z,12.20
2023-05-23T19:33:48.851Z,12.00
2023-05-23T19:36:17.607Z,12.12
2023-05-23T19:38:46.302Z,12.10
2023-05-23T19:41:15.045Z,12.02
2023-05-23T19:43:43.916Z,12.03
2023-05-23T19:46:16.164Z,11.99
2023-05-23T19:48:45.038Z,11.95
2023-05-23T19:56:09.810Z,11.75
2023-05-23T19:58:38.629Z,11.66
2023-05-23T20:01:07.412Z,11.66
2023-05-23T20:03:37.721Z,11.16
2023-05-23T20:11:07.617Z,11.42
2023-05-23T20:13:39.440Z,11.41
2023-05-23T20:20:36.258Z,11.21
2023-05-23T20:23:07.600Z,11.22
2023-05-23T20:25:36.428Z,11.19
2023-05-23T20:28:05.289Z,11.12
2023-05-23T20:30:34.518Z,11.13
2023-05-23T20:33:03.838Z,11.08
2023-05-23T20:35:32.692Z,10.91
2023-05-23T20:38:02.893Z,11.12
2023-05-23T20:40:33.633Z,11.13
2023-05-23T20:43:04.849Z,11.13
2023-05-23T20:45:34.237Z,11.15
2023-05-23T20:48:03.040Z,11.03
2023-05-23T20:50:33.753Z,11.02
2023-05-23T20:53:04.080Z,10.96
2023-05-23T21:10:08.242Z,10.75
2023-05-23T21:12:36.954Z,10.72
2023-05-23T21:15:06.407Z,10.74
2023-05-23T21:17:35.136Z,10.71
2023-05-23T21:20:05.570Z,10.66
2023-05-23T21:22:34.328Z,10.66
2023-05-23T21:25:07.427Z,10.66
2023-05-23T21:27:38.861Z,10.51
2023-05-23T21:30:08.935Z,10.59
2023-05-23T21:32:37.631Z,10.58
2023-05-23T21:35:07.363Z,10.57
2023-05-23T21:37:36.158Z,10.44
2023-05-23T21:40:07.772Z,10.31
2023-05-23T21:42:36.439Z,10.39
2023-05-23T21:45:05.854Z,10.42
2023-05-23T21:47:34.625Z,10.42
2023-05-23T21:50:04.267Z,10.38
2023-05-23T21:52:33.087Z,10.43
2023-05-23T21:55:04.101Z,10.42
2023-05-23T21:57:36.455Z,10.41
2023-05-23T22:00:12.309Z,10.35
2023-05-23T22:02:44.526Z,10.32
2023-05-23T22:05:13.569Z,10.27
2023-05-23T22:07:42.315Z,10.19
2023-05-23T22:10:11.576Z,10.27
2023-05-23T22:12:41.773Z,10.21
2023-05-23T22:15:11.277Z,10.16
2023-05-23T22:17:43.281Z,10.12
2023-05-23T22:20:16.742Z,10.11
2023-05-23T22:22:47.971Z,10.11
2023-05-23T22:25:16.923Z,10.08
2023-05-23T22:27:46.975Z,10.07
2023-05-23T22:30:15.934Z,10.07
2023-05-23T22:32:44.660Z,10.04
2023-05-23T22:35:13.387Z,9.78
2023-05-23T22:37:42.080Z,9.75
2023-05-23T22:40:11.235Z,9.64
2023-05-23T22:42:40.475Z,9.61
2023-05-23T22:45:11.634Z,9.52
2023-05-23T22:47:41.663Z,9.52
2023-05-23T22:50:11.535Z,9.52
2023-05-23T22:52:40.456Z,9.52
2023-05-23T22:55:10.005Z,9.51
2023-05-23T22:57:38.760Z,9.52
2023-05-23T23:00:08.956Z,9.48
2023-05-23T23:02:39.123Z,9.48
2023-05-23T23:05:11.260Z,9.46
2023-05-23T23:07:43.176Z,9.45
2023-05-23T23:10:14.218Z,9.45
2023-05-23T23:12:43.037Z,9.36
2023-05-23T23:15:12.054Z,9.38
2023-05-23T23:17:42.189Z,9.23
2023-05-23T23:20:12.642Z,9.31
2023-05-23T23:22:41.845Z,9.31
2023-05-23T23:25:11.009Z,9.28
2023-05-23T23:27:40.024Z,9.25
2023-05-23T23:30:10.054Z,9.22
2023-05-23T23:32:38.851Z,9.20
2023-05-23T23:35:10.501Z,9.16
2023-05-23T23:37:39.632Z,9.21
2023-05-23T23:40:10.034Z,9.21
2023-05-23T23:42:38.864Z,9.19
2023-05-23T23:45:08.492Z,9.14
2023-05-23T23:47:37.237Z,9.12
2023-05-23T23:50:06.888Z,9.09
2023-05-23T23:52:38.965Z,8.99
2023-05-23T23:55:08.092Z,9.01
2023-05-23T23:57:39.014Z,8.98
